createdAt,value
2022-09-11T00:01:40.527Z,8.68
2022-09-11T00:04:07.985Z,9.25
2022-09-11T00:06:35.013Z,8.88
2022-09-11T00:09:07.480Z,9.73
2022-09-11T00:11:41.729Z,10.10
2022-09-11T00:14:14.345Z,9.52
2022-09-11T00:16:47.210Z,9.77
2022-09-11T00:19:20.074Z,9.38
2022-09-11T00:21:50.542Z,9.93
2022-09-11T00:24:17.816Z,10.05
2022-09-11T00:26:47.586Z,10.77
2022-09-11T00:29:14.569Z,10.52
2022-09-11T00:31:41.855Z,10.18
2022-09-11T00:34:09.692Z,10.23
2022-09-11T00:36:39.248Z,10.30
2022-09-11T00:39:06.890Z,10.07
2022-09-11T00:41:45.060Z,10.90
2022-09-11T00:44:17.971Z,11.52
2022-09-11T00:47:01.803Z,11.18
2022-09-11T00:49:34.772Z,10.70
2022-09-11T00:52:42.069Z,10.48
2022-09-11T00:55:16.220Z,11.00
2022-09-11T00:57:56.203Z,13.00
2022-09-11T01:00:23.262Z,10.85
2022-09-11T01:02:54.637Z,10.40
2022-09-11T01:05:26.145Z,11.65
2022-09-11T01:07:56.780Z,12.90
2022-09-11T01:11:23.708Z,11.63
2022-09-11T01:14:34.680Z,12.40
2022-09-11T01:17:57.722Z,12.38
2022-09-11T01:21:34.387Z,11.25
2022-09-11T01:24:32.245Z,10.57
2022-09-11T01:27:48.247Z,12.80
2022-09-11T01:30:32.543Z,12.57
2022-09-11T01:33:34.936Z,9.25
2022-09-11T01:36:34.349Z,10.73
2022-09-11T01:39:05.390Z,11.50
2022-09-11T01:41:48.672Z,11.68
2022-09-11T01:44:49.103Z,11.13
2022-09-11T01:47:21.216Z,10.52
2022-09-11T01:50:04.336Z,10.40
2022-09-11T01:52:50.826Z,9.55
2022-09-11T01:55:39.522Z,10.57
2022-09-11T01:58:30.454Z,9.23
2022-09-11T02:01:18.577Z,10.40
2022-09-11T02:04:24.566Z,9.55
2022-09-11T02:07:10.486Z,10.20
2022-09-11T02:09:56.673Z,9.93
2022-09-11T02:12:43.651Z,10.70
2022-09-11T02:15:16.107Z,11.02
2022-09-11T02:18:07.092Z,10.48
2022-09-11T02:20:36.353Z,9.00
2022-09-11T02:23:03.785Z,9.80
2022-09-11T02:25:31.810Z,10.45
2022-09-11T02:27:59.583Z,10.95
2022-09-11T02:30:26.579Z,10.60
2022-09-11T02:32:56.046Z,11.68
2022-09-11T02:35:45.552Z,11.00
2022-09-11T02:38:53.453Z,10.65
2022-09-11T02:42:00.772Z,9.52
2022-09-11T02:44:57.040Z,10.15
2022-09-11T02:48:16.504Z,8.73
2022-09-11T02:51:33.192Z,8.82
2022-09-11T02:54:53.584Z,8.75
2022-09-11T02:57:39.395Z,9.68
2022-09-11T03:00:10.600Z,9.55
2022-09-11T03:02:43.273Z,8.63
2022-09-11T03:05:11.966Z,8.43
2022-09-11T03:07:39.291Z,7.53
2022-09-11T03:10:08.567Z,7.90
2022-09-11T03:12:36.755Z,8.15
2022-09-11T03:15:06.063Z,7.78
2022-09-11T03:17:33.836Z,8.10
2022-09-11T03:20:00.870Z,7.80
2022-09-11T03:22:28.063Z,7.53
2022-09-11T03:24:55.055Z,8.83
2022-09-11T03:27:23.807Z,9.45
2022-09-11T03:29:50.753Z,9.15
2022-09-11T03:32:17.740Z,9.40
2022-09-11T03:34:44.780Z,10.23
2022-09-11T03:37:11.721Z,10.15
2022-09-11T03:39:38.923Z,10.68
2022-09-11T03:42:07.507Z,10.00
2022-09-11T03:44:34.735Z,9.88
2022-09-11T03:47:01.673Z,10.07
2022-09-11T03:49:28.819Z,9.57
2022-09-11T03:51:57.067Z,9.03
2022-09-11T03:54:24.034Z,11.43
2022-09-11T03:56:50.967Z,13.23
2022-09-11T03:59:19.622Z,15.50
2022-09-11T04:01:50.940Z,16.02
2022-09-11T04:04:18.523Z,22.05
2022-09-11T04:06:45.484Z,23.92
2022-09-11T04:09:12.468Z,23.95
2022-09-11T04:11:40.268Z,23.15
2022-09-11T04:14:08.317Z,24.10
2022-09-11T04:19:04.191Z,25.05
2022-09-11T04:21:34.426Z,27.95
2022-09-11T04:24:02.409Z,23.25
2022-09-11T04:29:01.333Z,22.75
2022-09-11T04:31:28.863Z,21.90
2022-09-11T04:33:57.996Z,22.95
2022-09-11T04:36:27.277Z,23.50
2022-09-11T04:39:00.266Z,23.27
2022-09-11T04:41:29.054Z,22.77
2022-09-11T04:44:04.876Z,23.08
2022-09-11T04:46:33.421Z,21.77
2022-09-11T04:51:33.228Z,20.58
2022-09-11T04:54:02.060Z,20.63
2022-09-11T04:56:34.928Z,22.52
2022-09-11T04:59:13.701Z,22.30
2022-09-11T05:01:41.640Z,18.63
2022-09-11T05:04:10.560Z,20.25
2022-09-11T05:06:38.099Z,19.52
2022-09-11T05:09:09.717Z,19.88
2022-09-11T05:11:39.446Z,20.23
2022-09-11T05:14:07.724Z,22.60
2022-09-11T05:16:38.045Z,22.88
2022-09-11T05:19:05.926Z,22.77
2022-09-11T05:21:34.253Z,22.92
2022-09-11T05:24:04.515Z,22.08
2022-09-11T05:26:38.826Z,20.30
2022-09-11T05:29:16.637Z,21.75
2022-09-11T05:31:44.011Z,21.30
2022-09-11T05:34:11.335Z,20.60
2022-09-11T05:36:38.392Z,19.60
2022-09-11T05:39:05.559Z,21.35
2022-09-11T05:41:32.668Z,20.83
2022-09-11T05:44:00.080Z,18.27
2022-09-11T05:46:27.237Z,20.25
2022-09-11T05:48:54.398Z,20.50
2022-09-11T05:51:22.517Z,20.20
2022-09-11T05:53:56.854Z,20.83
2022-09-11T05:56:26.450Z,19.25
2022-09-11T05:58:53.922Z,18.85
2022-09-11T06:01:28.964Z,17.92
2022-09-11T06:03:58.072Z,20.65
2022-09-11T06:06:25.916Z,19.23
2022-09-11T06:08:53.490Z,18.73
2022-09-11T06:11:22.298Z,19.42
2022-09-11T06:13:50.693Z,19.48
2022-09-11T06:16:24.225Z,18.83
2022-09-11T06:18:54.420Z,17.80
2022-09-11T06:21:26.922Z,19.30
2022-09-11T06:23:54.329Z,18.10
2022-09-11T06:26:27.215Z,18.38
2022-09-11T06:28:54.902Z,20.08
2022-09-11T06:31:26.962Z,19.90
2022-09-11T06:33:54.439Z,20.98
2022-09-11T06:36:27.236Z,19.35
2022-09-11T06:38:57.449Z,18.77
2022-09-11T06:41:26.548Z,20.35
2022-09-11T06:43:54.096Z,19.60
2022-09-11T06:46:25.519Z,22.35
2022-09-11T06:48:54.037Z,20.63
2022-09-11T06:51:23.772Z,21.70
2022-09-11T06:53:59.425Z,22.42
2022-09-11T06:56:32.918Z,22.55
2022-09-11T06:59:00.536Z,20.40
2022-09-11T07:01:28.632Z,20.70
2022-09-11T07:03:57.171Z,20.33
2022-09-11T07:06:29.028Z,20.45
2022-09-11T07:09:03.067Z,21.15
2022-09-11T07:11:35.556Z,20.73
2022-09-11T07:14:06.390Z,20.60
2022-09-11T07:16:34.941Z,19.98
2022-09-11T07:19:04.180Z,22.13
2022-09-11T07:21:31.993Z,20.55
2022-09-11T07:24:00.756Z,20.23
2022-09-11T07:26:30.435Z,20.77
2022-09-11T07:28:59.917Z,19.60
2022-09-11T07:31:33.146Z,18.58
2022-09-11T07:34:02.946Z,18.55
2022-09-11T07:36:35.013Z,18.00
2022-09-11T07:39:04.243Z,18.73
2022-09-11T07:41:31.702Z,18.70
2022-09-11T07:44:01.029Z,18.23
2022-09-11T07:46:31.372Z,18.58
2022-09-11T07:48:59.066Z,18.35
2022-09-11T07:51:27.083Z,18.98
2022-09-11T07:53:59.574Z,17.52
2022-09-11T07:56:28.677Z,17.25
2022-09-11T07:58:58.526Z,17.45
2022-09-11T08:01:30.806Z,16.70
2022-09-11T08:04:07.025Z,15.93
2022-09-11T08:06:38.618Z,14.90
2022-09-11T08:09:18.592Z,15.13
2022-09-11T08:11:48.871Z,14.07
2022-09-11T08:14:17.787Z,13.15
2022-09-11T08:16:45.357Z,13.50
2022-09-11T08:19:20.801Z,13.02
2022-09-11T08:21:48.489Z,12.23
2022-09-11T08:24:17.891Z,11.55
2022-09-11T08:26:48.801Z,12.52
2022-09-11T08:29:18.354Z,13.20
2022-09-11T08:31:45.454Z,10.98
2022-09-11T08:34:12.623Z,11.77
2022-09-11T08:36:40.006Z,12.73
2022-09-11T08:39:07.164Z,12.10
2022-09-11T08:41:53.756Z,12.13
2022-09-11T08:44:47.790Z,12.20
2022-09-11T08:47:27.736Z,11.13
2022-09-11T08:50:09.478Z,11.68
2022-09-11T08:52:38.064Z,12.00
2022-09-11T08:55:06.940Z,11.73
2022-09-11T08:58:05.322Z,13.05
2022-09-11T09:00:51.288Z,11.93
2022-09-11T09:03:50.205Z,11.35
2022-09-11T09:07:21.705Z,12.50
2022-09-11T09:10:15.391Z,12.07
2022-09-11T09:13:26.423Z,13.27
2022-09-11T09:16:32.565Z,12.55
2022-09-11T09:19:34.808Z,11.88
2022-09-11T09:22:43.884Z,12.40
2022-09-11T09:25:18.104Z,10.70
2022-09-11T09:27:51.372Z,11.02
2022-09-11T09:30:27.592Z,12.23
2022-09-11T09:33:43.117Z,10.88
2022-09-11T09:36:21.022Z,11.32
2022-09-11T09:38:49.157Z,10.60
2022-09-11T09:41:50.586Z,12.43
2022-09-11T09:45:14.548Z,11.07
2022-09-11T09:47:47.943Z,11.07
2022-09-11T09:50:30.564Z,11.45
2022-09-11T09:53:48.691Z,10.02
2022-09-11T09:56:21.292Z,9.73
2022-09-11T09:59:23.447Z,9.57
2022-09-11T10:01:55.191Z,10.85
2022-09-11T10:04:30.301Z,10.88
2022-09-11T10:07:21.864Z,10.43
2022-09-11T10:10:03.327Z,10.05
2022-09-11T10:12:31.728Z,11.35
2022-09-11T10:15:04.014Z,10.27
2022-09-11T10:17:35.260Z,11.35
2022-09-11T10:20:19.552Z,10.63
2022-09-11T10:22:46.968Z,10.35
2022-09-11T10:25:15.302Z,11.35
2022-09-11T10:28:05.012Z,10.05
2022-09-11T10:30:42.330Z,9.27
2022-09-11T10:33:41.298Z,9.50
2022-09-11T10:36:12.025Z,9.33
2022-09-11T10:38:45.362Z,9.40
2022-09-11T10:41:27.687Z,10.18
2022-09-11T10:44:16.260Z,10.73
2022-09-11T10:46:46.575Z,9.98
2022-09-11T10:49:22.871Z,10.32
2022-09-11T10:52:09.019Z,10.88
2022-09-11T10:55:08.715Z,9.38
2022-09-11T10:58:06.231Z,8.40
2022-09-11T11:00:35.845Z,9.32
2022-09-11T11:03:24.098Z,8.68
2022-09-11T11:06:39.304Z,9.10
2022-09-11T11:09:31.290Z,9.82
2022-09-11T11:12:40.418Z,9.48
2022-09-11T11:15:45.956Z,9.63
2022-09-11T11:19:24.046Z,8.65
2022-09-11T11:22:22.543Z,8.52
2022-09-11T11:25:05.497Z,9.60
2022-09-11T11:28:29.781Z,8.00
2022-09-11T11:31:20.792Z,7.25
2022-09-11T11:34:51.237Z,7.65
2022-09-11T11:37:34.382Z,7.22
2022-09-11T11:40:24.145Z,8.48
2022-09-11T11:43:27.540Z,8.55
2022-09-11T11:46:26.800Z,8.45
2022-09-11T11:49:10.688Z,8.75
2022-09-11T11:52:34.087Z,9.07
2022-09-11T11:55:28.987Z,9.35
2022-09-11T11:59:03.831Z,9.63
2022-09-11T12:01:57.735Z,9.23
2022-09-11T12:05:16.855Z,9.57
2022-09-11T12:07:47.363Z,9.23
2022-09-11T12:10:40.694Z,8.20
2022-09-11T12:13:17.385Z,8.07
2022-09-11T12:16:29.108Z,8.40
2022-09-11T12:19:25.481Z,7.55
2022-09-11T12:21:55.161Z,7.60
2022-09-11T12:24:59.104Z,6.72
2022-09-11T12:27:36.419Z,6.88
2022-09-11T12:30:30.869Z,8.35
2022-09-11T12:33:02.320Z,7.75
2022-09-11T12:35:51.976Z,6.90
2022-09-11T12:39:14.499Z,7.75
2022-09-11T12:41:42.194Z,7.28
2022-09-11T12:44:47.005Z,7.05
2022-09-11T12:47:34.844Z,7.50
2022-09-11T12:50:28.376Z,6.10
2022-09-11T12:53:02.417Z,7.75
2022-09-11T12:55:51.094Z,7.45
2022-09-11T12:58:18.936Z,6.38
2022-09-11T13:01:08.829Z,6.70
2022-09-11T13:03:59.537Z,5.85
2022-09-11T13:07:02.633Z,5.75
2022-09-11T13:09:40.027Z,5.82
2022-09-11T13:12:25.728Z,5.82
2022-09-11T13:14:56.521Z,5.85
2022-09-11T13:17:32.716Z,6.38
2022-09-11T13:20:05.371Z,5.78
2022-09-11T13:22:34.673Z,5.22
2022-09-11T13:25:17.394Z,5.93
2022-09-11T13:28:01.517Z,5.43
2022-09-11T13:30:29.247Z,6.40
2022-09-11T13:33:22.711Z,6.00
2022-09-11T13:35:51.852Z,6.22
2022-09-11T13:38:30.494Z,7.22
2022-09-11T13:41:18.310Z,7.07
2022-09-11T13:43:58.167Z,7.30
2022-09-11T13:46:32.780Z,6.47
2022-09-11T13:49:06.725Z,6.82
2022-09-11T13:51:35.780Z,7.20
2022-09-11T13:54:15.788Z,6.65
2022-09-11T13:57:12.445Z,7.00
2022-09-11T13:59:44.799Z,6.97
2022-09-11T14:02:47.829Z,6.40
2022-09-11T14:05:28.084Z,6.63
2022-09-11T14:08:32.915Z,6.20
2022-09-11T14:11:11.725Z,6.05
2022-09-11T14:14:06.106Z,5.78
2022-09-11T14:16:51.950Z,5.18
2022-09-11T14:19:31.557Z,4.43
2022-09-11T14:21:59.884Z,4.53
2022-09-11T14:24:38.263Z,4.22
2022-09-11T14:27:31.320Z,4.28
2022-09-11T14:29:58.735Z,4.60
2022-09-11T14:32:39.083Z,4.15
2022-09-11T14:35:10.459Z,4.45
2022-09-11T14:37:49.616Z,4.43
2022-09-11T14:40:19.997Z,4.70
2022-09-11T14:42:48.761Z,4.28
2022-09-11T14:45:24.582Z,4.20
2022-09-11T14:47:52.297Z,4.38
2022-09-11T14:52:46.930Z,4.28
2022-09-11T14:55:19.559Z,4.70
2022-09-11T14:57:47.795Z,4.97
2022-09-11T15:00:19.001Z,5.28
2022-09-11T15:02:46.971Z,5.30
2022-09-11T15:05:21.687Z,5.50
2022-09-11T15:07:49.165Z,5.32
2022-09-11T15:10:16.615Z,5.95
2022-09-11T15:12:44.603Z,5.80
2022-09-11T15:15:11.702Z,5.25
2022-09-11T15:17:39.037Z,5.63
2022-09-11T15:20:09.233Z,5.53
2022-09-11T15:22:38.885Z,5.45
2022-09-11T15:25:07.454Z,4.82
2022-09-11T15:27:34.743Z,5.32
2022-09-11T15:30:01.847Z,5.03
2022-09-11T15:32:29.646Z,5.22
2022-09-11T15:37:24.701Z,5.18
2022-09-11T15:39:51.963Z,4.95
2022-09-11T15:42:19.593Z,5.88
2022-09-11T15:44:47.974Z,4.57
2022-09-11T15:47:15.087Z,5.28
2022-09-11T15:49:48.037Z,5.22
2022-09-11T15:52:15.086Z,4.45
2022-09-11T15:54:42.959Z,4.43
2022-09-11T15:59:37.190Z,4.65
2022-09-11T16:02:04.871Z,3.42
2022-09-11T16:04:32.370Z,4.55
2022-09-11T16:06:59.998Z,3.60
2022-09-11T16:09:32.141Z,3.67
2022-09-11T16:12:02.039Z,3.78
2022-09-11T16:14:38.472Z,3.60
2022-09-11T16:17:08.455Z,4.07
2022-09-11T16:19:36.782Z,3.28
2022-09-11T16:22:07.075Z,4.18
2022-09-11T16:24:37.881Z,3.67
2022-09-11T16:27:10.316Z,3.33
2022-09-11T16:30:15.658Z,2.72
2022-09-11T16:32:29.084Z,3.28
2022-09-11T16:34:59.632Z,3.00
2022-09-11T16:37:28.363Z,3.20
2022-09-11T16:39:55.725Z,2.88
2022-09-11T16:42:23.446Z,3.15
2022-09-11T16:44:50.779Z,2.53
2022-09-11T16:47:18.171Z,2.75
2022-09-11T16:50:05.809Z,2.58
2022-09-11T16:52:33.812Z,2.28
2022-09-11T16:55:00.947Z,2.45
2022-09-11T16:57:27.999Z,2.47
2022-09-11T16:59:54.991Z,2.00
2022-09-11T17:02:22.020Z,2.13
2022-09-11T17:04:49.150Z,2.30
2022-09-11T17:07:16.133Z,2.55
2022-09-11T17:09:43.795Z,2.47
2022-09-11T17:12:18.001Z,2.80
2022-09-11T17:14:45.286Z,2.90
2022-09-11T17:17:12.219Z,2.53
2022-09-11T17:19:39.714Z,2.83
2022-09-11T17:22:07.361Z,2.47
2022-09-11T17:24:35.222Z,2.55
2022-09-11T17:27:02.857Z,3.05
2022-09-11T17:29:29.902Z,2.83
2022-09-11T17:32:16.661Z,2.97
2022-09-11T17:34:43.820Z,3.25
2022-09-11T17:37:12.157Z,3.55
2022-09-11T17:39:42.443Z,4.57
2022-09-11T17:42:14.063Z,4.00
2022-09-11T17:44:42.316Z,3.30
2022-09-11T17:49:36.429Z,2.95
2022-09-11T17:52:04.438Z,3.40
2022-09-11T17:54:31.768Z,3.08
2022-09-11T17:56:59.159Z,3.35
2022-09-11T17:59:29.067Z,3.58
2022-09-11T18:01:56.022Z,3.55
2022-09-11T18:04:23.009Z,6.57
2022-09-11T18:06:51.166Z,5.73
2022-09-11T18:09:19.909Z,5.88
2022-09-11T18:11:53.989Z,6.07
2022-09-11T18:14:20.984Z,10.18
2022-09-11T18:16:48.551Z,10.33
2022-09-11T18:24:32.269Z,6.35
2022-09-11T18:27:01.132Z,5.75
2022-09-11T18:29:30.332Z,5.80
2022-09-11T18:31:59.871Z,4.70
2022-09-11T18:34:29.401Z,5.00
2022-09-11T18:36:56.415Z,4.57
2022-09-11T18:39:23.844Z,4.83
2022-09-11T18:41:52.840Z,5.15
2022-09-11T18:44:25.035Z,5.07
2022-09-11T18:46:56.028Z,6.85
2022-09-11T18:49:23.481Z,5.80
2022-09-11T18:51:51.893Z,5.57
2022-09-11T18:54:21.312Z,5.30
2022-09-11T18:56:50.720Z,6.25
2022-09-11T18:59:19.440Z,5.70
2022-09-11T19:01:46.528Z,5.47
2022-09-11T19:04:15.247Z,5.43
2022-09-11T19:06:42.336Z,5.20
2022-09-11T19:09:12.735Z,5.35
2022-09-11T19:11:40.918Z,5.60
2022-09-11T19:14:12.352Z,5.35
2022-09-11T19:16:40.245Z,5.70
2022-09-11T19:21:38.429Z,6.78
2022-09-11T19:24:06.823Z,5.93
2022-09-11T19:26:39.120Z,6.57
2022-09-11T19:29:09.891Z,6.68
2022-09-11T19:31:39.331Z,6.32
2022-09-11T19:34:11.858Z,5.93
2022-09-11T19:36:41.133Z,5.82
2022-09-11T19:39:10.356Z,5.82
2022-09-11T19:41:39.963Z,6.10
2022-09-11T19:44:13.706Z,5.82
2022-09-11T19:46:43.128Z,5.13
2022-09-11T19:49:11.250Z,5.10
2022-09-11T19:51:42.985Z,4.57
2022-09-11T19:54:14.420Z,4.53
2022-09-11T19:56:47.404Z,5.03
2022-09-11T19:59:14.484Z,4.88
2022-09-11T20:01:41.891Z,4.85
2022-09-11T20:04:11.426Z,5.18
2022-09-11T20:06:39.283Z,5.30
2022-09-11T20:09:29.906Z,4.57
2022-09-11T20:11:54.089Z,5.30
2022-09-11T20:14:21.126Z,4.83
2022-09-11T20:16:48.794Z,4.80
2022-09-11T20:19:17.285Z,4.60
2022-09-11T20:21:44.360Z,4.68
2022-09-11T20:24:11.353Z,5.80
2022-09-11T20:26:38.412Z,5.10
2022-09-11T20:29:13.927Z,5.00
2022-09-11T20:31:49.757Z,4.68
2022-09-11T20:34:19.970Z,4.70
2022-09-11T20:36:47.664Z,4.80
2022-09-11T20:39:15.510Z,5.15
2022-09-11T20:41:44.063Z,5.50
2022-09-11T20:44:11.852Z,4.80
2022-09-11T20:46:39.178Z,5.00
2022-09-11T20:49:06.230Z,4.70
2022-09-11T20:51:34.804Z,5.35
2022-09-11T20:54:02.596Z,5.20
2022-09-11T20:56:31.296Z,5.05
2022-09-11T20:59:00.602Z,5.00
2022-09-11T21:01:34.763Z,5.95
2022-09-11T21:04:04.688Z,5.15
2022-09-11T21:06:35.466Z,5.18
2022-09-11T21:09:11.167Z,5.22
2022-09-11T21:11:42.588Z,5.38
2022-09-11T21:14:13.014Z,4.88
2022-09-11T21:16:40.458Z,5.45
2022-09-11T21:19:09.144Z,5.50
2022-09-11T21:21:40.450Z,6.22
2022-09-11T21:24:13.714Z,5.45
2022-09-11T21:26:42.444Z,5.95
2022-09-11T21:29:13.438Z,5.63
2022-09-11T21:31:40.614Z,5.70
2022-09-11T21:34:07.744Z,4.97
2022-09-11T21:36:36.743Z,5.10
2022-09-11T21:39:05.260Z,5.05
2022-09-11T21:41:32.206Z,5.63
2022-09-11T21:43:59.320Z,5.63
2022-09-11T21:46:26.418Z,5.22
2022-09-11T21:48:53.537Z,4.97
2022-09-11T21:51:21.112Z,5.30
2022-09-11T21:53:55.907Z,5.18
2022-09-11T21:56:30.474Z,5.32
2022-09-11T21:58:58.799Z,5.80
2022-09-11T22:01:28.577Z,5.80
2022-09-11T22:03:55.965Z,5.97
2022-09-11T22:06:24.760Z,5.82
2022-09-11T22:08:53.512Z,6.68
2022-09-11T22:11:21.426Z,6.05
2022-09-11T22:13:49.600Z,6.95
2022-09-11T22:16:19.549Z,5.70
2022-09-11T22:18:55.191Z,5.60
2022-09-11T22:21:22.738Z,6.20
2022-09-11T22:23:50.212Z,6.88
2022-09-11T22:26:21.560Z,5.45
2022-09-11T22:28:48.818Z,5.93
2022-09-11T22:31:21.783Z,6.85
2022-09-11T22:33:48.829Z,7.35
2022-09-11T22:36:30.617Z,6.80
2022-09-11T22:38:59.129Z,7.03
2022-09-11T22:41:27.523Z,7.38
2022-09-11T22:43:54.434Z,6.45
2022-09-11T22:46:21.552Z,7.50
2022-09-11T22:48:49.143Z,7.47
2022-09-11T22:51:16.783Z,7.03
2022-09-11T22:53:44.073Z,6.97
2022-09-11T22:56:13.810Z,7.13
2022-09-11T22:58:41.645Z,7.53
2022-09-11T23:01:12.573Z,7.32
2022-09-11T23:03:39.684Z,6.70
2022-09-11T23:06:36.115Z,6.93
2022-09-11T23:09:13.195Z,7.32
2022-09-11T23:11:40.463Z,6.88
2022-09-11T23:14:13.317Z,8.10
2022-09-11T23:16:41.773Z,7.47
2022-09-11T23:19:13.971Z,8.38
2022-09-11T23:21:42.848Z,7.22
2022-09-11T23:24:14.457Z,7.85
2022-09-11T23:26:41.792Z,8.15
2022-09-11T23:29:09.140Z,8.68
2022-09-11T23:31:37.279Z,7.75
2022-09-11T23:34:09.329Z,7.00
2022-09-11T23:36:36.680Z,8.02
2022-09-11T23:39:04.500Z,7.35
2022-09-11T23:41:32.157Z,7.75
2022-09-11T23:43:59.825Z,7.18
2022-09-11T23:46:27.260Z,6.60
2022-09-11T23:48:54.295Z,7.55
2022-09-11T23:51:22.390Z,6.77
2022-09-11T23:53:51.671Z,7.63
2022-09-11T23:56:19.459Z,7.55
2022-09-11T23:58:46.650Z,6.78
